sensor_id;sensor_type;location;lat;lon;timestamp;temperature;humidity
15819;DHT22;8010;53.986;12.106;2023-12-20T00:01:29;6.20;99.90
15819;DHT22;8010;53.986;12.106;2023-12-20T00:03:54;6.20;99.90
15819;DHT22;8010;53.986;12.106;2023-12-20T00:06:20;6.20;99.90
15819;DHT22;8010;53.986;12.106;2023-12-20T00:08:45;6.20;99.90
15819;DHT22;8010;53.986;12.106;2023-12-20T00:11:11;6.20;99.90
15819;DHT22;8010;53.986;12.106;2023-12-20T00:13:36;6.20;99.90
15819;DHT22;8010;53.986;12.106;2023-12-20T00:16:02;6.10;99.90
15819;DHT22;8010;53.986;12.106;2023-12-20T00:18:28;6.10;99.90
15819;DHT22;8010;53.986;12.106;2023-12-20T00:20:53;6.10;99.90
15819;DHT22;8010;53.986;12.106;2023-12-20T00:23:19;6.10;99.90
15819;DHT22;8010;53.986;12.106;2023-12-20T00:25:45;6.00;99.90
15819;DHT22;8010;53.986;12.106;2023-12-20T00:28:10;6.00;99.90
15819;DHT22;8010;53.986;12.106;2023-12-20T00:30:36;5.90;99.90
15819;DHT22;8010;53.986;12.106;2023-12-20T00:33:01;5.90;99.90
15819;DHT22;8010;53.986;12.106;2023-12-20T00:35:27;5.80;99.90
15819;DHT22;8010;53.986;12.106;2023-12-20T00:37:53;5.80;99.90
15819;DHT22;8010;53.986;12.106;2023-12-20T00:40:18;5.80;99.90
15819;DHT22;8010;53.986;12.106;2023-12-20T00:42:44;5.80;99.90
15819;DHT22;8010;53.986;12.106;2023-12-20T00:45:12;5.70;99.90
15819;DHT22;8010;53.986;12.106;2023-12-20T00:47:37;5.70;99.90
15819;DHT22;8010;53.986;12.106;2023-12-20T00:50:03;5.70;99.90
15819;DHT22;8010;53.986;12.106;2023-12-20T00:52:29;5.60;99.90
15819;DHT22;8010;53.986;12.106;2023-12-20T00:54:54;5.60;99.90
15819;DHT22;8010;53.986;12.106;2023-12-20T00:57:20;5.50;99.90
15819;DHT22;8010;53.986;12.106;2023-12-20T00:59:45;5.50;99.90
15819;DHT22;8010;53.986;12.106;2023-12-20T01:02:11;5.50;99.90
15819;DHT22;8010;53.986;12.106;2023-12-20T01:04:36;5.50;99.90
15819;DHT22;8010;53.986;12.106;2023-12-20T01:07:02;5.40;99.90
15819;DHT22;8010;53.986;12.106;2023-12-20T01:09:27;5.40;99.90
15819;DHT22;8010;53.986;12.106;2023-12-20T01:11:53;5.30;99.90
15819;DHT22;8010;53.986;12.106;2023-12-20T01:14:19;5.30;99.90
15819;DHT22;8010;53.986;12.106;2023-12-20T01:16:44;5.30;99.90
15819;DHT22;8010;53.986;12.106;2023-12-20T01:19:10;5.20;99.90
15819;DHT22;8010;53.986;12.106;2023-12-20T01:21:36;5.20;99.90
15819;DHT22;8010;53.986;12.106;2023-12-20T01:24:01;5.10;99.90
15819;DHT22;8010;53.986;12.106;2023-12-20T01:26:27;5.10;99.90
15819;DHT22;8010;53.986;12.106;2023-12-20T01:28:53;5.10;99.90
15819;DHT22;8010;53.986;12.106;2023-12-20T01:31:18;5.10;99.90
15819;DHT22;8010;53.986;12.106;2023-12-20T01:33:44;5.20;99.90
15819;DHT22;8010;53.986;12.106;2023-12-20T01:36:09;5.10;99.90
15819;DHT22;8010;53.986;12.106;2023-12-20T01:38:36;5.20;99.90
15819;DHT22;8010;53.986;12.106;2023-12-20T01:41:02;5.20;99.90
15819;DHT22;8010;53.986;12.106;2023-12-20T01:43:27;5.20;99.90
15819;DHT22;8010;53.986;12.106;2023-12-20T01:45:55;5.20;99.90
15819;DHT22;8010;53.986;12.106;2023-12-20T01:48:21;5.20;99.90
15819;DHT22;8010;53.986;12.106;2023-12-20T01:50:46;5.20;99.90
15819;DHT22;8010;53.986;12.106;2023-12-20T01:53:12;5.30;99.90
15819;DHT22;8010;53.986;12.106;2023-12-20T01:55:40;5.30;99.90
15819;DHT22;8010;53.986;12.106;2023-12-20T01:58:06;5.30;99.90
15819;DHT22;8010;53.986;12.106;2023-12-20T02:00:33;5.30;99.90
15819;DHT22;8010;53.986;12.106;2023-12-20T02:03:01;5.40;99.90
15819;DHT22;8010;53.986;12.106;2023-12-20T02:05:28;5.30;99.90
15819;DHT22;8010;53.986;12.106;2023-12-20T02:07:54;5.40;99.90
15819;DHT22;8010;53.986;12.106;2023-12-20T02:10:19;5.40;99.90
15819;DHT22;8010;53.986;12.106;2023-12-20T02:12:45;5.40;99.90
15819;DHT22;8010;53.986;12.106;2023-12-20T02:15:10;5.40;99.90
15819;DHT22;8010;53.986;12.106;2023-12-20T02:17:38;5.40;99.90
15819;DHT22;8010;53.986;12.106;2023-12-20T02:20:05;5.40;99.90
15819;DHT22;8010;53.986;12.106;2023-12-20T02:22:31;5.40;99.90
15819;DHT22;8010;53.986;12.106;2023-12-20T02:24:57;5.40;99.90
15819;DHT22;8010;53.986;12.106;2023-12-20T02:27:23;5.40;99.90
15819;DHT22;8010;53.986;12.106;2023-12-20T02:29:50;5.30;99.90
15819;DHT22;8010;53.986;12.106;2023-12-20T02:32:17;5.30;99.90
15819;DHT22;8010;53.986;12.106;2023-12-20T02:34:43;5.30;99.90
15819;DHT22;8010;53.986;12.106;2023-12-20T02:37:08;5.40;99.90
15819;DHT22;8010;53.986;12.106;2023-12-20T02:39:34;5.40;99.90
15819;DHT22;8010;53.986;12.106;2023-12-20T02:41:59;5.40;99.90
15819;DHT22;8010;53.986;12.106;2023-12-20T02:44:25;5.50;99.90
15819;DHT22;8010;53.986;12.106;2023-12-20T02:46:50;5.50;99.90
15819;DHT22;8010;53.986;12.106;2023-12-20T02:49:16;5.50;99.90
15819;DHT22;8010;53.986;12.106;2023-12-20T02:51:41;5.60;99.90
15819;DHT22;8010;53.986;12.106;2023-12-20T02:54:07;5.70;99.90
15819;DHT22;8010;53.986;12.106;2023-12-20T02:56:33;5.70;99.90
15819;DHT22;8010;53.986;12.106;2023-12-20T02:58:58;5.70;99.90
15819;DHT22;8010;53.986;12.106;2023-12-20T03:01:24;5.80;99.90
15819;DHT22;8010;53.986;12.106;2023-12-20T03:03:50;5.80;99.90
15819;DHT22;8010;53.986;12.106;2023-12-20T03:06:18;5.80;99.90
15819;DHT22;8010;53.986;12.106;2023-12-20T03:08:44;5.80;99.90
15819;DHT22;8010;53.986;12.106;2023-12-20T03:11:10;5.80;99.90
15819;DHT22;8010;53.986;12.106;2023-12-20T03:13:36;5.80;99.90
15819;DHT22;8010;53.986;12.106;2023-12-20T03:16:12;5.80;99.90
15819;DHT22;8010;53.986;12.106;2023-12-20T03:18:38;5.90;99.90
15819;DHT22;8010;53.986;12.106;2023-12-20T03:21:04;5.80;99.90
15819;DHT22;8010;53.986;12.106;2023-12-20T03:23:30;5.80;99.90
15819;DHT22;8010;53.986;12.106;2023-12-20T03:25:57;5.90;99.90
15819;DHT22;8010;53.986;12.106;2023-12-20T03:28:23;5.90;99.90
15819;DHT22;8010;53.986;12.106;2023-12-20T03:30:49;5.90;99.90
15819;DHT22;8010;53.986;12.106;2023-12-20T03:33:14;5.90;99.90
15819;DHT22;8010;53.986;12.106;2023-12-20T03:35:40;5.90;99.90
15819;DHT22;8010;53.986;12.106;2023-12-20T03:38:05;5.90;99.90
15819;DHT22;8010;53.986;12.106;2023-12-20T03:40:31;5.90;99.90
15819;DHT22;8010;53.986;12.106;2023-12-20T03:42:56;6.00;99.90
15819;DHT22;8010;53.986;12.106;2023-12-20T03:45:22;6.00;99.90
15819;DHT22;8010;53.986;12.106;2023-12-20T03:47:47;6.00;99.90
15819;DHT22;8010;53.986;12.106;2023-12-20T03:50:14;6.00;99.90
15819;DHT22;8010;53.986;12.106;2023-12-20T03:52:39;6.00;99.90
15819;DHT22;8010;53.986;12.106;2023-12-20T03:55:05;6.00;99.90
15819;DHT22;8010;53.986;12.106;2023-12-20T03:57:30;5.90;99.90
15819;DHT22;8010;53.986;12.106;2023-12-20T03:59:56;6.00;99.90
15819;DHT22;8010;53.986;12.106;2023-12-20T04:02:21;6.00;99.90
15819;DHT22;8010;53.986;12.106;2023-12-20T04:04:47;6.00;99.90
15819;DHT22;8010;53.986;12.106;2023-12-20T04:07:12;6.00;99.90
15819;DHT22;8010;53.986;12.106;2023-12-20T04:09:38;6.00;99.90
15819;DHT22;8010;53.986;12.106;2023-12-20T04:12:04;6.00;99.90
15819;DHT22;8010;53.986;12.106;2023-12-20T04:14:31;6.00;99.90
15819;DHT22;8010;53.986;12.106;2023-12-20T04:16:56;6.00;99.90
15819;DHT22;8010;53.986;12.106;2023-12-20T04:19:22;6.00;99.90
15819;DHT22;8010;53.986;12.106;2023-12-20T04:21:47;6.10;99.90
15819;DHT22;8010;53.986;12.106;2023-12-20T04:24:13;6.00;99.90
15819;DHT22;8010;53.986;12.106;2023-12-20T04:26:38;6.00;99.90
15819;DHT22;8010;53.986;12.106;2023-12-20T04:29:04;6.10;99.90
15819;DHT22;8010;53.986;12.106;2023-12-20T04:31:29;6.10;99.90
15819;DHT22;8010;53.986;12.106;2023-12-20T04:33:55;6.00;99.90
15819;DHT22;8010;53.986;12.106;2023-12-20T04:36:20;6.00;99.90
15819;DHT22;8010;53.986;12.106;2023-12-20T04:38:46;6.00;99.90
15819;DHT22;8010;53.986;12.106;2023-12-20T04:41:11;6.00;99.90
15819;DHT22;8010;53.986;12.106;2023-12-20T04:43:41;6.00;99.90
15819;DHT22;8010;53.986;12.106;2023-12-20T04:46:06;6.00;99.90
15819;DHT22;8010;53.986;12.106;2023-12-20T04:48:32;6.00;99.90
15819;DHT22;8010;53.986;12.106;2023-12-20T04:50:57;6.00;99.90
15819;DHT22;8010;53.986;12.106;2023-12-20T04:53:23;6.00;99.90
15819;DHT22;8010;53.986;12.106;2023-12-20T04:55:48;6.00;99.90
15819;DHT22;8010;53.986;12.106;2023-12-20T04:58:14;6.00;99.90
15819;DHT22;8010;53.986;12.106;2023-12-20T05:00:39;6.00;99.90
15819;DHT22;8010;53.986;12.106;2023-12-20T05:03:05;6.00;99.90
15819;DHT22;8010;53.986;12.106;2023-12-20T05:05:31;6.00;99.90
15819;DHT22;8010;53.986;12.106;2023-12-20T05:07:57;6.00;99.90
15819;DHT22;8010;53.986;12.106;2023-12-20T05:10:22;6.00;99.90
15819;DHT22;8010;53.986;12.106;2023-12-20T05:12:48;6.00;99.90
15819;DHT22;8010;53.986;12.106;2023-12-20T05:15:13;6.10;99.90
15819;DHT22;8010;53.986;12.106;2023-12-20T05:17:39;6.10;99.90
15819;DHT22;8010;53.986;12.106;2023-12-20T05:20:05;6.10;99.90
15819;DHT22;8010;53.986;12.106;2023-12-20T05:22:31;6.10;99.90
15819;DHT22;8010;53.986;12.106;2023-12-20T05:24:56;6.10;99.90
15819;DHT22;8010;53.986;12.106;2023-12-20T05:27:21;6.10;99.90
15819;DHT22;8010;53.986;12.106;2023-12-20T05:29:47;6.10;99.90
15819;DHT22;8010;53.986;12.106;2023-12-20T05:32:13;6.10;99.90
15819;DHT22;8010;53.986;12.106;2023-12-20T05:34:38;6.10;99.90
15819;DHT22;8010;53.986;12.106;2023-12-20T05:37:04;6.10;99.90
15819;DHT22;8010;53.986;12.106;2023-12-20T05:39:29;6.10;99.90
15819;DHT22;8010;53.986;12.106;2023-12-20T05:41:56;6.10;99.90
15819;DHT22;8010;53.986;12.106;2023-12-20T05:44:21;6.10;99.90
15819;DHT22;8010;53.986;12.106;2023-12-20T05:46:47;6.10;99.90
15819;DHT22;8010;53.986;12.106;2023-12-20T05:49:12;6.10;99.90
15819;DHT22;8010;53.986;12.106;2023-12-20T05:51:39;6.10;99.90
15819;DHT22;8010;53.986;12.106;2023-12-20T05:54:04;6.10;99.90
15819;DHT22;8010;53.986;12.106;2023-12-20T05:56:30;6.10;99.90
15819;DHT22;8010;53.986;12.106;2023-12-20T05:58:56;6.00;99.90
15819;DHT22;8010;53.986;12.106;2023-12-20T06:01:21;6.00;99.90
15819;DHT22;8010;53.986;12.106;2023-12-20T06:03:46;6.00;99.90
15819;DHT22;8010;53.986;12.106;2023-12-20T06:06:12;6.00;99.90
15819;DHT22;8010;53.986;12.106;2023-12-20T06:08:41;6.00;99.90
15819;DHT22;8010;53.986;12.106;2023-12-20T06:11:06;6.00;99.90
15819;DHT22;8010;53.986;12.106;2023-12-20T06:13:32;6.00;99.90
15819;DHT22;8010;53.986;12.106;2023-12-20T06:15:57;5.90;99.90
15819;DHT22;8010;53.986;12.106;2023-12-20T06:18:23;5.90;99.90
15819;DHT22;8010;53.986;12.106;2023-12-20T06:20:49;5.90;99.90
15819;DHT22;8010;53.986;12.106;2023-12-20T06:23:15;5.90;99.90
15819;DHT22;8010;53.986;12.106;2023-12-20T06:25:41;5.90;99.90
15819;DHT22;8010;53.986;12.106;2023-12-20T06:28:06;6.90;99.90
15819;DHT22;8010;53.986;12.106;2023-12-20T06:30:32;5.90;99.90
15819;DHT22;8010;53.986;12.106;2023-12-20T06:32:58;5.90;99.90
15819;DHT22;8010;53.986;12.106;2023-12-20T06:35:24;5.90;99.90
15819;DHT22;8010;53.986;12.106;2023-12-20T06:37:49;5.90;99.90
15819;DHT22;8010;53.986;12.106;2023-12-20T06:40:15;5.90;99.90
15819;DHT22;8010;53.986;12.106;2023-12-20T06:42:41;5.90;99.90
15819;DHT22;8010;53.986;12.106;2023-12-20T06:45:07;5.90;99.90
15819;DHT22;8010;53.986;12.106;2023-12-20T06:47:32;5.90;99.90
15819;DHT22;8010;53.986;12.106;2023-12-20T06:49:58;6.00;99.90
15819;DHT22;8010;53.986;12.106;2023-12-20T06:52:23;6.00;99.90
15819;DHT22;8010;53.986;12.106;2023-12-20T06:54:49;6.00;99.90
15819;DHT22;8010;53.986;12.106;2023-12-20T06:57:14;5.90;99.90
15819;DHT22;8010;53.986;12.106;2023-12-20T06:59:43;5.90;99.90
15819;DHT22;8010;53.986;12.106;2023-12-20T07:02:09;5.90;99.90
15819;DHT22;8010;53.986;12.106;2023-12-20T07:04:39;5.90;99.90
15819;DHT22;8010;53.986;12.106;2023-12-20T07:07:05;5.90;99.90
15819;DHT22;8010;53.986;12.106;2023-12-20T07:09:32;5.90;99.90
15819;DHT22;8010;53.986;12.106;2023-12-20T07:11:58;5.90;99.90
15819;DHT22;8010;53.986;12.106;2023-12-20T07:14:23;5.90;99.90
15819;DHT22;8010;53.986;12.106;2023-12-20T07:16:49;5.90;99.90
15819;DHT22;8010;53.986;12.106;2023-12-20T07:19:14;5.90;99.90
15819;DHT22;8010;53.986;12.106;2023-12-20T07:21:40;5.90;99.90
15819;DHT22;8010;53.986;12.106;2023-12-20T07:24:05;5.90;99.90
15819;DHT22;8010;53.986;12.106;2023-12-20T07:26:31;5.90;99.90
15819;DHT22;8010;53.986;12.106;2023-12-20T07:28:56;5.90;99.90
15819;DHT22;8010;53.986;12.106;2023-12-20T07:31:24;5.90;99.90
15819;DHT22;8010;53.986;12.106;2023-12-20T07:33:49;5.90;99.90
15819;DHT22;8010;53.986;12.106;2023-12-20T07:36:15;5.90;99.90
15819;DHT22;8010;53.986;12.106;2023-12-20T07:38:40;5.90;99.90
15819;DHT22;8010;53.986;12.106;2023-12-20T07:41:09;5.90;99.90
15819;DHT22;8010;53.986;12.106;2023-12-20T07:43:35;5.90;99.90
15819;DHT22;8010;53.986;12.106;2023-12-20T07:46:07;5.90;99.90
15819;DHT22;8010;53.986;12.106;2023-12-20T07:48:34;5.90;99.90
15819;DHT22;8010;53.986;12.106;2023-12-20T07:51:00;5.90;99.90
15819;DHT22;8010;53.986;12.106;2023-12-20T07:53:26;5.90;99.90
15819;DHT22;8010;53.986;12.106;2023-12-20T07:55:52;8.40;99.90
15819;DHT22;8010;53.986;12.106;2023-12-20T07:58:18;5.90;99.90
15819;DHT22;8010;53.986;12.106;2023-12-20T08:00:44;5.90;99.90
15819;DHT22;8010;53.986;12.106;2023-12-20T08:03:09;6.00;99.90
15819;DHT22;8010;53.986;12.106;2023-12-20T08:05:35;5.90;99.90
15819;DHT22;8010;53.986;12.106;2023-12-20T08:08:01;5.90;99.90
15819;DHT22;8010;53.986;12.106;2023-12-20T08:10:26;5.90;99.90
15819;DHT22;8010;53.986;12.106;2023-12-20T08:12:55;5.90;99.90
15819;DHT22;8010;53.986;12.106;2023-12-20T08:15:20;5.90;99.90
15819;DHT22;8010;53.986;12.106;2023-12-20T08:17:46;6.00;99.90
15819;DHT22;8010;53.986;12.106;2023-12-20T08:20:11;6.00;99.90
15819;DHT22;8010;53.986;12.106;2023-12-20T08:22:37;6.00;99.90
15819;DHT22;8010;53.986;12.106;2023-12-20T08:25:02;6.00;99.90
15819;DHT22;8010;53.986;12.106;2023-12-20T08:27:28;6.00;99.90
15819;DHT22;8010;53.986;12.106;2023-12-20T08:29:54;6.10;99.90
15819;DHT22;8010;53.986;12.106;2023-12-20T08:32:19;6.10;99.90
15819;DHT22;8010;53.986;12.106;2023-12-20T08:34:45;6.10;99.90
15819;DHT22;8010;53.986;12.106;2023-12-20T08:37:10;6.10;99.90
15819;DHT22;8010;53.986;12.106;2023-12-20T08:39:36;6.10;99.90
15819;DHT22;8010;53.986;12.106;2023-12-20T08:42:01;6.20;99.90
15819;DHT22;8010;53.986;12.106;2023-12-20T08:44:27;6.10;99.90
15819;DHT22;8010;53.986;12.106;2023-12-20T08:46:53;6.10;99.90
15819;DHT22;8010;53.986;12.106;2023-12-20T08:49:18;6.00;99.90
15819;DHT22;8010;53.986;12.106;2023-12-20T08:51:44;6.00;99.90
15819;DHT22;8010;53.986;12.106;2023-12-20T08:54:09;6.00;99.90
15819;DHT22;8010;53.986;12.106;2023-12-20T08:56:35;6.00;99.90
15819;DHT22;8010;53.986;12.106;2023-12-20T08:59:01;5.90;99.90
15819;DHT22;8010;53.986;12.106;2023-12-20T09:01:26;5.80;99.90
15819;DHT22;8010;53.986;12.106;2023-12-20T09:03:52;5.80;99.90
15819;DHT22;8010;53.986;12.106;2023-12-20T09:06:17;5.80;99.90
15819;DHT22;8010;53.986;12.106;2023-12-20T09:08:43;5.70;99.90
15819;DHT22;8010;53.986;12.106;2023-12-20T09:11:08;5.70;99.90
15819;DHT22;8010;53.986;12.106;2023-12-20T09:13:34;5.70;99.90
15819;DHT22;8010;53.986;12.106;2023-12-20T09:15:59;5.70;99.90
15819;DHT22;8010;53.986;12.106;2023-12-20T09:18:25;5.70;99.90
15819;DHT22;8010;53.986;12.106;2023-12-20T09:20:51;5.20;99.90
15819;DHT22;8010;53.986;12.106;2023-12-20T09:23:16;5.80;99.90
15819;DHT22;8010;53.986;12.106;2023-12-20T09:25:43;5.90;99.90
15819;DHT22;8010;53.986;12.106;2023-12-20T09:28:09;5.90;99.90
15819;DHT22;8010;53.986;12.106;2023-12-20T09:30:35;5.90;99.90
15819;DHT22;8010;53.986;12.106;2023-12-20T09:33:03;5.90;99.90
15819;DHT22;8010;53.986;12.106;2023-12-20T09:35:28;5.90;99.90
15819;DHT22;8010;53.986;12.106;2023-12-20T09:37:54;5.90;99.90
15819;DHT22;8010;53.986;12.106;2023-12-20T09:40:19;5.90;99.90
15819;DHT22;8010;53.986;12.106;2023-12-20T09:42:57;5.90;99.90
15819;DHT22;8010;53.986;12.106;2023-12-20T09:45:23;5.90;99.90
15819;DHT22;8010;53.986;12.106;2023-12-20T09:47:53;6.00;99.90
15819;DHT22;8010;53.986;12.106;2023-12-20T09:50:21;6.00;99.90
15819;DHT22;8010;53.986;12.106;2023-12-20T09:52:51;6.00;99.90
15819;DHT22;8010;53.986;12.106;2023-12-20T09:55:18;6.10;99.90
15819;DHT22;8010;53.986;12.106;2023-12-20T09:57:45;6.10;99.90
15819;DHT22;8010;53.986;12.106;2023-12-20T10:00:11;6.10;99.90
15819;DHT22;8010;53.986;12.106;2023-12-20T10:02:40;6.20;99.90
15819;DHT22;8010;53.986;12.106;2023-12-20T10:05:08;6.20;99.90
15819;DHT22;8010;53.986;12.106;2023-12-20T10:07:35;6.20;99.90
15819;DHT22;8010;53.986;12.106;2023-12-20T10:10:02;6.20;99.90
15819;DHT22;8010;53.986;12.106;2023-12-20T10:12:27;6.20;99.90
15819;DHT22;8010;53.986;12.106;2023-12-20T10:14:53;6.20;99.90
15819;DHT22;8010;53.986;12.106;2023-12-20T10:17:18;6.10;99.90
15819;DHT22;8010;53.986;12.106;2023-12-20T10:19:44;6.10;99.90
15819;DHT22;8010;53.986;12.106;2023-12-20T10:22:10;6.10;99.90
15819;DHT22;8010;53.986;12.106;2023-12-20T10:24:35;6.10;99.90
15819;DHT22;8010;53.986;12.106;2023-12-20T10:27:06;6.10;99.90
15819;DHT22;8010;53.986;12.106;2023-12-20T10:29:33;6.10;99.90
15819;DHT22;8010;53.986;12.106;2023-12-20T10:31:59;6.10;99.90
15819;DHT22;8010;53.986;12.106;2023-12-20T10:34:24;6.10;99.90
15819;DHT22;8010;53.986;12.106;2023-12-20T10:36:50;6.20;99.90
15819;DHT22;8010;53.986;12.106;2023-12-20T10:39:17;6.20;99.90
15819;DHT22;8010;53.986;12.106;2023-12-20T10:41:45;6.20;99.90
15819;DHT22;8010;53.986;12.106;2023-12-20T10:44:12;6.20;99.90
15819;DHT22;8010;53.986;12.106;2023-12-20T10:46:39;6.20;99.90
15819;DHT22;8010;53.986;12.106;2023-12-20T10:49:08;6.20;99.90
15819;DHT22;8010;53.986;12.106;2023-12-20T10:51:34;6.30;99.90
15819;DHT22;8010;53.986;12.106;2023-12-20T10:54:00;6.20;99.90
15819;DHT22;8010;53.986;12.106;2023-12-20T10:56:28;6.10;99.90
15819;DHT22;8010;53.986;12.106;2023-12-20T10:58:59;6.10;99.90
15819;DHT22;8010;53.986;12.106;2023-12-20T11:01:27;6.20;99.90
15819;DHT22;8010;53.986;12.106;2023-12-20T11:03:54;6.20;99.90
15819;DHT22;8010;53.986;12.106;2023-12-20T11:06:27;6.20;99.90
15819;DHT22;8010;53.986;12.106;2023-12-20T11:12:02;6.20;99.90
15819;DHT22;8010;53.986;12.106;2023-12-20T11:14:39;6.20;99.90
15819;DHT22;8010;53.986;12.106;2023-12-20T11:17:09;6.20;99.90
15819;DHT22;8010;53.986;12.106;2023-12-20T11:19:37;6.20;99.90
15819;DHT22;8010;53.986;12.106;2023-12-20T11:22:04;6.20;99.90
15819;DHT22;8010;53.986;12.106;2023-12-20T11:24:31;6.30;99.90
15819;DHT22;8010;53.986;12.106;2023-12-20T11:26:59;6.40;99.90
15819;DHT22;8010;53.986;12.106;2023-12-20T11:29:35;7.60;99.90
15819;DHT22;8010;53.986;12.106;2023-12-20T11:34:47;6.40;99.90
15819;DHT22;8010;53.986;12.106;2023-12-20T11:37:13;6.30;99.90
15819;DHT22;8010;53.986;12.106;2023-12-20T11:39:38;6.30;99.90
15819;DHT22;8010;53.986;12.106;2023-12-20T11:42:05;6.60;99.90
15819;DHT22;8010;53.986;12.106;2023-12-20T11:44:31;6.70;99.90
15819;DHT22;8010;53.986;12.106;2023-12-20T11:46:57;6.90;99.90
15819;DHT22;8010;53.986;12.106;2023-12-20T11:49:24;7.00;99.90
15819;DHT22;8010;53.986;12.106;2023-12-20T11:51:50;6.80;99.90
15819;DHT22;8010;53.986;12.106;2023-12-20T11:54:16;6.70;99.90
15819;DHT22;8010;53.986;12.106;2023-12-20T11:56:41;6.60;99.90
15819;DHT22;8010;53.986;12.106;2023-12-20T11:59:08;6.70;99.90
15819;DHT22;8010;53.986;12.106;2023-12-20T12:01:34;6.70;99.90
15819;DHT22;8010;53.986;12.106;2023-12-20T12:04:06;6.90;99.90
15819;DHT22;8010;53.986;12.106;2023-12-20T12:06:32;7.00;99.90
15819;DHT22;8010;53.986;12.106;2023-12-20T12:08:58;6.90;99.90
15819;DHT22;8010;53.986;12.106;2023-12-20T12:11:23;6.70;99.90
15819;DHT22;8010;53.986;12.106;2023-12-20T12:13:50;6.60;99.90
15819;DHT22;8010;53.986;12.106;2023-12-20T12:16:19;6.50;99.90
15819;DHT22;8010;53.986;12.106;2023-12-20T12:18:45;6.40;99.90
15819;DHT22;8010;53.986;12.106;2023-12-20T12:21:18;6.30;99.90
15819;DHT22;8010;53.986;12.106;2023-12-20T12:23:44;6.20;99.90
15819;DHT22;8010;53.986;12.106;2023-12-20T12:26:10;6.20;99.90
15819;DHT22;8010;53.986;12.106;2023-12-20T12:28:35;6.20;99.90
15819;DHT22;8010;53.986;12.106;2023-12-20T12:31:01;6.30;99.90
15819;DHT22;8010;53.986;12.106;2023-12-20T12:33:26;6.50;99.90
15819;DHT22;8010;53.986;12.106;2023-12-20T12:35:52;6.70;99.90
15819;DHT22;8010;53.986;12.106;2023-12-20T12:38:22;6.60;99.90
15819;DHT22;8010;53.986;12.106;2023-12-20T12:40:47;6.50;99.90
15819;DHT22;8010;53.986;12.106;2023-12-20T12:43:13;6.40;99.90
15819;DHT22;8010;53.986;12.106;2023-12-20T12:45:38;6.40;99.90
15819;DHT22;8010;53.986;12.106;2023-12-20T12:48:05;6.30;99.90
15819;DHT22;8010;53.986;12.106;2023-12-20T12:50:31;6.40;99.90
15819;DHT22;8010;53.986;12.106;2023-12-20T12:52:57;6.40;99.90
15819;DHT22;8010;53.986;12.106;2023-12-20T12:55:22;6.30;99.90
15819;DHT22;8010;53.986;12.106;2023-12-20T12:57:48;6.30;99.90
15819;DHT22;8010;53.986;12.106;2023-12-20T13:00:13;6.30;99.90
15819;DHT22;8010;53.986;12.106;2023-12-20T13:02:39;6.30;99.90
15819;DHT22;8010;53.986;12.106;2023-12-20T13:05:08;6.40;99.90
15819;DHT22;8010;53.986;12.106;2023-12-20T13:07:33;6.50;99.90
15819;DHT22;8010;53.986;12.106;2023-12-20T13:09:59;6.40;99.90
15819;DHT22;8010;53.986;12.106;2023-12-20T13:12:25;6.30;99.90
15819;DHT22;8010;53.986;12.106;2023-12-20T13:14:51;6.30;99.90
15819;DHT22;8010;53.986;12.106;2023-12-20T13:17:17;6.30;99.90
15819;DHT22;8010;53.986;12.106;2023-12-20T13:19:43;6.30;99.90
15819;DHT22;8010;53.986;12.106;2023-12-20T13:22:08;6.30;99.90
15819;DHT22;8010;53.986;12.106;2023-12-20T13:24:34;6.20;99.90
15819;DHT22;8010;53.986;12.106;2023-12-20T13:27:00;6.20;99.90
15819;DHT22;8010;53.986;12.106;2023-12-20T13:29:25;6.20;99.90
15819;DHT22;8010;53.986;12.106;2023-12-20T13:31:53;6.20;99.90
15819;DHT22;8010;53.986;12.106;2023-12-20T13:34:18;6.20;99.90
15819;DHT22;8010;53.986;12.106;2023-12-20T13:36:44;6.20;99.90
15819;DHT22;8010;53.986;12.106;2023-12-20T13:39:15;6.20;99.90
15819;DHT22;8010;53.986;12.106;2023-12-20T13:41:40;6.30;99.90
15819;DHT22;8010;53.986;12.106;2023-12-20T13:44:06;6.40;99.90
15819;DHT22;8010;53.986;12.106;2023-12-20T13:46:32;6.40;99.90
15819;DHT22;8010;53.986;12.106;2023-12-20T13:48:57;6.40;99.90
15819;DHT22;8010;53.986;12.106;2023-12-20T13:51:23;6.30;99.90
15819;DHT22;8010;53.986;12.106;2023-12-20T13:53:48;6.20;99.90
15819;DHT22;8010;53.986;12.106;2023-12-20T13:56:17;6.10;99.90
15819;DHT22;8010;53.986;12.106;2023-12-20T13:58:43;6.20;99.90
15819;DHT22;8010;53.986;12.106;2023-12-20T14:01:09;6.10;99.90
15819;DHT22;8010;53.986;12.106;2023-12-20T14:03:36;6.10;99.90
15819;DHT22;8010;53.986;12.106;2023-12-20T14:06:01;6.10;99.90
15819;DHT22;8010;53.986;12.106;2023-12-20T14:08:27;6.00;99.90
15819;DHT22;8010;53.986;12.106;2023-12-20T14:10:53;6.00;99.90
15819;DHT22;8010;53.986;12.106;2023-12-20T14:13:19;6.00;99.90
15819;DHT22;8010;53.986;12.106;2023-12-20T14:15:44;6.00;99.90
15819;DHT22;8010;53.986;12.106;2023-12-20T14:18:10;6.00;99.90
15819;DHT22;8010;53.986;12.106;2023-12-20T14:20:37;6.00;99.90
15819;DHT22;8010;53.986;12.106;2023-12-20T14:23:05;6.00;99.90
15819;DHT22;8010;53.986;12.106;2023-12-20T14:25:30;6.00;99.90
15819;DHT22;8010;53.986;12.106;2023-12-20T14:27:57;5.90;99.90
15819;DHT22;8010;53.986;12.106;2023-12-20T14:30:23;5.90;99.90
15819;DHT22;8010;53.986;12.106;2023-12-20T14:32:48;5.80;99.90
15819;DHT22;8010;53.986;12.106;2023-12-20T14:35:14;5.80;99.90
15819;DHT22;8010;53.986;12.106;2023-12-20T14:37:40;5.80;99.90
15819;DHT22;8010;53.986;12.106;2023-12-20T14:40:06;5.80;99.90
15819;DHT22;8010;53.986;12.106;2023-12-20T14:42:35;5.80;99.90
15819;DHT22;8010;53.986;12.106;2023-12-20T14:45:01;5.80;99.90
15819;DHT22;8010;53.986;12.106;2023-12-20T14:47:26;5.80;99.90
15819;DHT22;8010;53.986;12.106;2023-12-20T14:49:52;5.80;99.90
15819;DHT22;8010;53.986;12.106;2023-12-20T14:52:18;5.70;99.90
15819;DHT22;8010;53.986;12.106;2023-12-20T14:54:44;5.70;99.90
15819;DHT22;8010;53.986;12.106;2023-12-20T14:57:10;5.60;99.90
15819;DHT22;8010;53.986;12.106;2023-12-20T14:59:35;5.60;99.90
15819;DHT22;8010;53.986;12.106;2023-12-20T15:02:01;5.60;99.90
15819;DHT22;8010;53.986;12.106;2023-12-20T15:04:30;5.50;99.90
15819;DHT22;8010;53.986;12.106;2023-12-20T15:06:56;5.60;99.90
15819;DHT22;8010;53.986;12.106;2023-12-20T15:09:22;5.60;99.90
15819;DHT22;8010;53.986;12.106;2023-12-20T15:11:48;5.60;99.90
15819;DHT22;8010;53.986;12.106;2023-12-20T15:14:13;5.60;99.90
15819;DHT22;8010;53.986;12.106;2023-12-20T15:16:44;5.60;99.90
15819;DHT22;8010;53.986;12.106;2023-12-20T15:19:10;5.60;99.90
15819;DHT22;8010;53.986;12.106;2023-12-20T15:21:35;5.60;99.90
15819;DHT22;8010;53.986;12.106;2023-12-20T15:24:06;5.60;99.90
15819;DHT22;8010;53.986;12.106;2023-12-20T15:26:39;5.60;99.90
15819;DHT22;8010;53.986;12.106;2023-12-20T15:29:04;5.60;99.90
15819;DHT22;8010;53.986;12.106;2023-12-20T15:31:30;5.70;99.90
15819;DHT22;8010;53.986;12.106;2023-12-20T15:33:58;5.70;99.90
15819;DHT22;8010;53.986;12.106;2023-12-20T15:36:24;5.70;99.90
15819;DHT22;8010;53.986;12.106;2023-12-20T15:38:51;5.70;99.90
15819;DHT22;8010;53.986;12.106;2023-12-20T15:41:18;5.70;99.90
15819;DHT22;8010;53.986;12.106;2023-12-20T15:43:44;5.80;99.90